Time;durP1;ratioP1;P1;durP2;ratioP2;P2;SDS_P1;SDS_P2;PMS_P1;PMS_P2;Temp;Humidity;BMP_temperature;BMP_pressure;BME280_temperature;BME280_humidity;BME280_pressure;Samples;Min_cycle;Max_cycle;Signal;HPM_P1;HPM_P2
2022/11/16 00:01:33;;;;;;;0.10;0.10;;;8.20;99.90;;;;;;5019249;28;20642;-73
2022/11/16 00:04:03;;;;;;;0.10;0.10;;;8.20;99.90;;;;;;5022105;28;20630;-73
2022/11/16 00:06:30;;;;;;;0.10;0.10;;;8.00;99.90;;;;;;5028259;28;20668;-73
2022/11/16 00:11:43;;;;;;;0.10;0.10;;;7.90;99.90;;;;;;5012853;28;20645;-74
2022/11/16 00:14:10;;;;;;;0.10;0.10;;;7.80;99.90;;;;;;5028454;28;21352;-73
2022/11/16 00:16:38;;;;;;;0.10;0.10;;;7.70;99.90;;;;;;5021911;28;20591;-74
2022/11/16 00:19:07;;;;;;;0.10;0.10;;;7.70;99.90;;;;;;5019501;28;20639;-73
2022/11/16 00:21:34;;;;;;;0.10;0.10;;;7.80;99.90;;;;;;5021212;28;20649;-74
2022/11/16 00:24:02;;;;;;;0.00;0.00;;;7.70;99.90;;;;;;5018719;28;20713;-74
2022/11/16 00:26:29;;;;;;;0.00;0.00;;;7.70;99.90;;;;;;5020305;28;20637;-74
2022/11/16 00:28:56;;;;;;;0.10;0.10;;;7.80;99.90;;;;;;5017747;28;20619;-74
2022/11/16 00:31:24;;;;;;;0.10;0.10;;;7.80;99.90;;;;;;5029871;28;20646;-73
2022/11/16 00:33:52;;;;;;;0.10;0.10;;;8.20;99.90;;;;;;5017594;28;20662;-73
2022/11/16 00:36:20;;;;;;;0.10;0.10;;;8.00;99.90;;;;;;5019282;28;20653;-74
2022/11/16 00:38:47;;;;;;;0.03;0.03;;;8.20;99.90;;;;;;5021478;28;20678;-74
2022/11/16 00:41:14;;;;;;;0.00;0.00;;;8.00;99.90;;;;;;5019307;28;20622;-74
2022/11/16 00:43:42;;;;;;;0.00;0.00;;;8.10;99.90;;;;;;5021541;28;20638;-74
2022/11/16 00:46:09;;;;;;;0.10;0.10;;;8.00;99.90;;;;;;5018938;28;20623;-74
2022/11/16 00:48:36;;;;;;;0.00;0.00;;;8.00;99.90;;;;;;5019023;28;20630;-74
2022/11/16 00:51:04;;;;;;;0.00;0.00;;;8.00;99.90;;;;;;5011101;28;20685;-73
2022/11/16 00:53:33;;;;;;;0.10;0.10;;;8.10;99.90;;;;;;5018920;28;20683;-73
2022/11/16 00:56:00;;;;;;;0.00;0.00;;;8.20;99.90;;;;;;5019075;28;20630;-74
2022/11/16 00:58:30;;;;;;;0.10;0.10;;;8.00;99.90;;;;;;5020056;28;20633;-74
2022/11/16 01:01:07;;;;;;;0.10;0.10;;;8.10;99.90;;;;;;5018515;28;20619;-74
2022/11/16 01:03:34;;;;;;;0.03;0.03;;;8.00;99.90;;;;;;5020213;28;20650;-74
2022/11/16 01:06:02;;;;;;;0.10;0.10;;;8.00;99.90;;;;;;5020711;28;20607;-74
2022/11/16 01:08:32;;;;;;;0.00;0.00;;;8.00;99.90;;;;;;5027798;28;20656;-74
2022/11/16 01:12:07;;;;;;;0.10;0.10;;;7.90;99.90;;;;;;5019955;28;21091;-74
2022/11/16 01:13:48;;;;;;;0.10;0.10;;;7.90;99.90;;;;;;5022919;28;21021;-74
2022/11/16 01:16:16;;;;;;;0.03;0.03;;;7.90;99.90;;;;;;5025534;28;20641;-74
2022/11/16 01:18:43;;;;;;;0.10;0.10;;;7.80;99.90;;;;;;5032273;28;20676;-73
2022/11/16 01:21:10;;;;;;;0.00;0.00;;;7.80;99.90;;;;;;5036648;28;20627;-74
2022/11/16 01:23:38;;;;;;;0.10;0.10;;;7.80;99.90;;;;;;5023099;28;21253;-74
2022/11/16 01:26:06;;;;;;;0.00;0.00;;;7.70;99.90;;;;;;5032390;28;20638;-74
2022/11/16 01:28:35;;;;;;;0.10;0.10;;;7.70;99.90;;;;;;5023294;28;20617;-74
2022/11/16 01:31:03;;;;;;;0.10;0.10;;;7.90;99.90;;;;;;5021647;28;20635;-74
2022/11/16 01:33:33;;;;;;;0.10;0.10;;;7.60;99.90;;;;;;5021867;28;20654;-74
2022/11/16 01:36:00;;;;;;;0.00;0.00;;;7.70;99.90;;;;;;5031701;28;20619;-74
2022/11/16 01:38:28;;;;;;;0.00;0.00;;;7.60;99.90;;;;;;5020270;28;20643;-74
2022/11/16 01:40:57;;;;;;;0.10;0.10;;;7.50;99.90;;;;;;5022409;28;20841;-74
2022/11/16 01:43:26;;;;;;;0.10;0.10;;;7.50;99.90;;;;;;5018795;28;20647;-74
2022/11/16 01:45:59;;;;;;;0.10;0.10;;;7.40;99.90;;;;;;5030528;28;20653;-74
2022/11/16 01:48:29;;;;;;;0.03;0.03;;;7.40;99.90;;;;;;5022702;28;20969;-74
2022/11/16 01:50:57;;;;;;;0.10;0.10;;;7.40;99.90;;;;;;5022594;28;20673;-74
2022/11/16 01:53:26;;;;;;;0.10;0.10;;;;;;;;;;5015359;28;20667;-74
2022/11/16 01:55:58;;;;;;;0.10;0.10;;;;;;;;;;5020462;28;20619;-74
2022/11/16 01:58:33;;;;;;;0.10;0.10;;;;;;;;;;5032796;28;20705;-74
2022/11/16 02:01:11;;;;;;;0.00;0.00;;;;;;;;;;5023189;28;20717;-74
2022/11/16 02:03:45;;;;;;;0.10;0.10;;;;;;;;;;5016204;28;20658;-74
2022/11/16 02:06:25;;;;;;;0.10;0.10;;;;;;;;;;5022588;28;20659;-74
2022/11/16 02:12:03;;;;;;;0.10;0.10;;;;;;;;;;5014158;28;20600;-74
2022/11/16 02:14:37;;;;;;;0.00;0.00;;;;;;;;;;5022412;28;20643;-74
2022/11/16 02:17:09;;;;;;;0.00;0.00;;;;;;;;;;5012270;28;20641;-74
2022/11/16 02:19:55;;;;;;;0.07;0.07;;;;;;;;;;5034488;28;20672;-74
2022/11/16 02:22:28;;;;;;;0.10;0.10;;;;;;;;;;5015595;28;20666;-74
2022/11/16 02:25:01;;;;;;;0.10;0.10;;;;;;;;;;5014132;28;20655;-74
2022/11/16 02:27:37;;;;;;;0.10;0.10;;;;;;;;;;5012447;28;20631;-74
2022/11/16 02:30:06;;;;;;;0.10;0.10;;;;;;;;;;5023221;28;20655;-74
2022/11/16 02:32:36;;;;;;;0.00;0.00;;;;;;;;;;5021339;28;20663;-74
2022/11/16 02:35:05;;;;;;;0.10;0.10;;;;;;;;;;5021027;28;20666;-74
2022/11/16 02:37:34;;;;;;;0.10;0.10;;;;;;;;;;5013639;28;21103;-74
2022/11/16 02:40:05;;;;;;;0.10;0.10;;;;;;;;;;5021027;28;20627;-74
2022/11/16 02:42:35;;;;;;;0.10;0.10;;;;;;;;;;5022391;28;20650;-74
2022/11/16 02:45:07;;;;;;;0.10;0.10;;;;;;;;;;5029111;28;20661;-74
2022/11/16 02:47:36;;;;;;;0.10;0.10;;;;;;;;;;5013446;28;21216;-74
2022/11/16 02:50:07;;;;;;;0.10;0.10;;;;;;;;;;5020324;28;20691;-74
2022/11/16 02:52:36;;;;;;;0.10;0.10;;;;;;;;;;5022697;28;20759;-74
2022/11/16 02:55:05;;;;;;;0.10;0.10;;;;;;;;;;5021461;28;20627;-74
2022/11/16 02:57:38;;;;;;;0.10;0.10;;;;;;;;;;5018701;28;20626;-74
2022/11/16 03:00:12;;;;;;;0.10;0.10;;;;;;;;;;5020883;28;20673;-74
2022/11/16 03:02:44;;;;;;;0.10;0.10;;;;;;;;;;5029404;28;20677;-74
2022/11/16 03:05:15;;;;;;;0.00;0.00;;;;;;;;;;5020268;28;20638;-74
2022/11/16 03:07:53;;;;;;;0.10;0.10;;;;;;;;;;5019058;28;20626;-74
2022/11/16 03:13:06;;;;;;;0.10;0.10;;;;;;;;;;5029179;28;20820;-74
2022/11/16 03:15:37;;;;;;;0.00;0.00;;;;;;;;;;5018867;28;20681;-74
2022/11/16 03:18:06;;;;;;;0.10;0.10;;;;;;;;;;5021202;28;20665;-74
2022/11/16 03:20:34;;;;;;;0.10;0.10;;;;;;;;;;5019176;28;21131;-74
2022/11/16 03:23:04;;;;;;;0.10;0.10;;;;;;;;;;5020653;28;20647;-74
2022/11/16 03:25:37;;;;;;;0.10;0.10;;;;;;;;;;5018506;28;20622;-74
2022/11/16 03:28:08;;;;;;;0.10;0.10;;;;;;;;;;5021135;28;20607;-74
2022/11/16 03:30:41;;;;;;;0.00;0.00;;;;;;;;;;5020525;28;20666;-74
2022/11/16 03:33:13;;;;;;;0.00;0.00;;;;;;;;;;5021076;28;20666;-74
2022/11/16 03:35:44;;;;;;;0.10;0.10;;;;;;;;;;5019649;28;20733;-75
2022/11/16 03:38:12;;;;;;;0.10;0.10;;;;;;;;;;5014134;28;20712;-74
2022/11/16 03:40:45;;;;;;;0.10;0.10;;;;;;;;;;5019677;28;20646;-75
2022/11/16 03:43:15;;;;;;;0.10;0.10;;;;;;;;;;5021405;28;20646;-75
2022/11/16 03:45:43;;;;;;;0.10;0.10;;;;;;;;;;5019283;28;20718;-74
2022/11/16 03:48:12;;;;;;;0.10;0.10;;;;;;;;;;5013374;28;20623;-74
2022/11/16 03:50:41;;;;;;;0.10;0.10;;;;;;;;;;5020258;28;20623;-75
2022/11/16 03:53:09;;;;;;;0.10;0.10;;;;;;;;;;5030663;28;20662;-74
2022/11/16 03:55:38;;;;;;;0.10;0.10;;;;;;;;;;5020404;28;20692;-74
2022/11/16 03:58:08;;;;;;;0.10;0.10;;;;;;;;;;5015222;28;20636;-74
2022/11/16 04:00:36;;;;;;;0.00;0.00;;;;;;;;;;5013264;28;21252;-74
2022/11/16 04:03:10;;;;;;;0.10;0.10;;;;;;;;;;5020234;28;20647;-75
2022/11/16 04:25:20;;;;;;;0.00;0.00;;;;;;;;;;4981208;28;20635;-74
2022/11/16 04:37:47;;;;;;;0.10;0.10;;;;;;;;;;5014635;28;20624;-74
2022/11/16 04:38:58;;;;;;;0.10;0.10;;;;;;;;;;5013271;28;20627;-74
2022/11/16 04:44:10;;;;;;;0.10;0.10;;;;;;;;;;5012947;28;20654;-75
2022/11/16 04:49:23;;;;;;;0.10;0.10;;;;;;;;;;5023124;28;20709;-74
2022/11/16 04:51:53;;;;;;;0.00;0.00;;;;;;;;;;5023309;28;20634;-74
2022/11/16 04:54:21;;;;;;;0.10;0.10;;;;;;;;;;5024068;28;20654;-74
2022/11/16 04:56:48;;;;;;;0.10;0.10;;;;;;;;;;5015347;28;20646;-74
2022/11/16 04:59:16;;;;;;;0.10;0.10;;;;;;;;;;5017155;28;20718;-74
2022/11/16 05:04:29;;;;;;;0.10;0.10;;;;;;;;;;5016886;28;20621;-74
2022/11/16 05:06:58;;;;;;;0.10;0.10;;;;;;;;;;5021938;28;20638;-74
2022/11/16 05:09:25;;;;;;;0.10;0.10;;;;;;;;;;5034889;28;20668;-74
2022/11/16 05:11:53;;;;;;;0.10;0.10;;;;;;;;;;5022458;28;20634;-74
2022/11/16 05:14:21;;;;;;;0.00;0.00;;;;;;;;;;5035602;28;20724;-74
2022/11/16 05:16:48;;;;;;;0.10;0.10;;;;;;;;;;5022620;28;20622;-74
2022/11/16 05:22:03;;;;;;;0.10;0.10;;;;;;;;;;5018138;28;21076;-74
2022/11/16 05:24:33;;;;;;;0.10;0.10;;;;;;;;;;5023016;28;20639;-74
2022/11/16 05:27:03;;;;;;;0.10;0.10;;;;;;;;;;5022361;28;20722;-74
2022/11/16 05:29:31;;;;;;;0.10;0.10;;;;;;;;;;5023366;28;20634;-73
2022/11/16 05:31:58;;;;;;;0.07;0.07;;;;;;;;;;5023771;28;21222;-73
2022/11/16 05:34:27;;;;;;;0.10;0.10;;;;;;;;;;5021870;28;20735;-74
2022/11/16 05:36:55;;;;;;;0.00;0.00;;;;;;;;;;5023237;28;20629;-74
2022/11/16 05:39:24;;;;;;;0.00;0.00;;;;;;;;;;5021121;28;20640;-74
2022/11/16 05:41:52;;;;;;;0.00;0.00;;;;;;;;;;5020745;28;20626;-75
2022/11/16 05:44:20;;;;;;;0.10;0.10;;;;;;;;;;5021899;28;20785;-74
2022/11/16 05:46:47;;;;;;;0.00;0.00;;;;;;;;;;5034442;28;20623;-74
2022/11/16 05:49:17;;;;;;;0.00;0.00;;;;;;;;;;5021899;28;20646;-74
2022/11/16 05:51:45;;;;;;;0.10;0.10;;;;;;;;;;5022080;28;20630;-74
2022/11/16 05:54:16;;;;;;;0.10;0.10;;;;;;;;;;5022845;28;20643;-74
2022/11/16 05:56:45;;;;;;;0.10;0.10;;;;;;;;;;5021093;28;20638;-74
2022/11/16 05:59:13;;;;;;;0.10;0.10;;;;;;;;;;5033961;28;20647;-74
2022/11/16 06:01:41;;;;;;;0.10;0.10;;;;;;;;;;5020676;28;20618;-73
2022/11/16 06:04:09;;;;;;;0.10;0.10;;;;;;;;;;5020310;28;20708;-75
2022/11/16 06:06:36;;;;;;;0.10;0.10;;;;;;;;;;5020525;28;21206;-75
2022/11/16 06:09:04;;;;;;;0.10;0.10;;;;;;;;;;5019775;28;20699;-73
2022/11/16 06:11:33;;;;;;;0.10;0.10;;;;;;;;;;5021632;28;20633;-74
2022/11/16 06:14:02;;;;;;;0.10;0.10;;;;;;;;;;5022066;28;20778;-74
2022/11/16 06:16:29;;;;;;;0.10;0.10;;;;;;;;;;5024376;28;20609;-76
2022/11/16 06:18:58;;;;;;;0.10;0.10;;;;;;;;;;5017143;28;20626;-74
2022/11/16 06:21:25;;;;;;;0.00;0.00;;;;;;;;;;5016208;28;20619;-74
2022/11/16 06:23:54;;;;;;;0.10;0.10;;;;;;;;;;5015025;28;20655;-75
2022/11/16 06:26:21;;;;;;;0.00;0.00;;;;;;;;;;5022339;28;20628;-75
2022/11/16 06:28:50;;;;;;;0.10;0.10;;;;;;;;;;5022986;28;20596;-75
2022/11/16 06:31:19;;;;;;;0.00;0.00;;;;;;;;;;5021797;28;20656;-74
2022/11/16 06:33:46;;;;;;;0.00;0.00;;;;;;;;;;5021437;28;20701;-75
2022/11/16 06:36:26;;;;;;;0.10;0.10;;;;;;;;;;5019935;28;20623;-75
2022/11/16 06:38:54;;;;;;;0.03;0.03;;;;;;;;;;5030677;28;20738;-75
2022/11/16 06:41:22;;;;;;;0.00;0.00;;;;;;;;;;5033657;28;20623;-75
2022/11/16 06:43:51;;;;;;;0.00;0.00;;;;;;;;;;5013635;28;20647;-75
2022/11/16 06:46:24;;;;;;;0.10;0.10;;;;;;;;;;5021587;28;20661;-74
2022/11/16 06:48:51;;;;;;;0.00;0.00;;;;;;;;;;5027784;28;21105;-74
2022/11/16 06:51:19;;;;;;;0.10;0.10;;;;;;;;;;5016257;28;20622;-74
2022/11/16 06:53:48;;;;;;;0.10;0.10;;;;;;;;;;5016944;28;20667;-74
2022/11/16 06:56:16;;;;;;;0.00;0.00;;;;;;;;;;5016800;28;20630;-74
2022/11/16 06:58:49;;;;;;;0.10;0.10;;;;;;;;;;5016669;28;20654;-74
2022/11/16 07:01:16;;;;;;;0.10;0.10;;;;;;;;;;5016521;28;20626;-74
2022/11/16 07:03:47;;;;;;;0.10;0.10;;;;;;;;;;5017399;28;20646;-74
2022/11/16 07:06:15;;;;;;;0.00;0.00;;;;;;;;;;5015718;28;21279;-74
2022/11/16 07:08:45;;;;;;;0.10;0.10;;;;;;;;;;5016248;28;20616;-74
2022/11/16 07:11:16;;;;;;;0.10;0.10;;;;;;;;;;5027059;28;20654;-74
2022/11/16 07:13:44;;;;;;;0.03;0.03;;;;;;;;;;5015344;28;20658;-74
2022/11/16 07:16:12;;;;;;;0.00;0.00;;;;;;;;;;5017353;28;20669;-74
2022/11/16 07:18:45;;;;;;;0.00;0.00;;;;;;;;;;5014755;28;20661;-74
2022/11/16 07:21:15;;;;;;;0.00;0.00;;;;;;;;;;5008015;28;20658;-74
2022/11/16 07:23:44;;;;;;;0.10;0.10;;;;;;;;;;5015352;28;20658;-74
2022/11/16 07:26:16;;;;;;;0.10;0.10;;;;;;;;;;5023591;28;20653;-74
2022/11/16 07:28:50;;;;;;;0.10;0.10;;;;;;;;;;5014875;28;20619;-75
2022/11/16 07:31:21;;;;;;;0.00;0.00;;;;;;;;;;5028566;28;20805;-74
2022/11/16 07:34:08;;;;;;;0.10;0.10;;;;;;;;;;5015280;28;20755;-74
2022/11/16 07:36:45;;;;;;;0.10;0.10;;;;;;;;;;5009262;28;20619;-74
2022/11/16 07:39:12;;;;;;;0.00;0.00;;;;;;;;;;5030962;28;20642;-74
2022/11/16 07:41:41;;;;;;;0.10;0.10;;;;;;;;;;5015894;28;20979;-74
2022/11/16 07:44:22;;;;;;;0.10;0.10;;;;;;;;;;5016086;28;20741;-75
2022/11/16 07:47:01;;;;;;;0.10;0.10;;;;;;;;;;5016109;28;20629;-75
2022/11/16 07:49:32;;;;;;;0.10;0.10;;;;;;;;;;5015825;28;20646;-75
2022/11/16 07:52:08;;;;;;;0.10;0.10;;;;;;;;;;5026994;28;20618;-74
2022/11/16 07:54:43;;;;;;;0.10;0.10;;;;;;;;;;5016119;28;20651;-74
2022/11/16 07:57:11;;;;;;;0.10;0.10;;;;;;;;;;5006985;28;20650;-74
2022/11/16 07:59:41;;;;;;;0.00;0.00;;;;;;;;;;5015093;28;20622;-75
2022/11/16 08:02:09;;;;;;;0.10;0.10;;;;;;;;;;5016805;28;20658;-75
2022/11/16 08:04:39;;;;;;;0.10;0.10;;;;;;;;;;5015216;28;20660;-74
2022/11/16 08:07:09;;;;;;;0.10;0.10;;;;;;;;;;5025859;28;20631;-75
2022/11/16 08:09:43;;;;;;;0.10;0.10;;;;;;;;;;5015908;28;20713;-75
2022/11/16 08:12:14;;;;;;;0.10;0.10;;;;;;;;;;5015797;28;20758;-74
2022/11/16 08:14:42;;;;;;;0.10;0.10;;;;;;;;;;5017289;28;20653;-75
2022/11/16 08:17:09;;;;;;;0.10;0.10;;;;;;;;;;5013602;28;20633;-75
2022/11/16 08:19:41;;;;;;;0.00;0.00;;;;;;;;;;5032634;28;20627;-75
2022/11/16 08:22:12;;;;;;;0.10;0.10;;;;;;;;;;5020601;28;20658;-75
2022/11/16 08:24:41;;;;;;;0.00;0.00;;;;;;;;;;5020889;28;20622;-75
2022/11/16 08:27:09;;;;;;;0.10;0.10;;;;;;;;;;5021040;28;20622;-74
2022/11/16 08:29:36;;;;;;;0.00;0.00;;;;;;;;;;5022377;28;20672;-75
2022/11/16 08:32:06;;;;;;;0.10;0.10;;;;;;;;;;5021316;28;20742;-75
2022/11/16 08:34:35;;;;;;;0.10;0.10;;;;;;;;;;5022100;28;20656;-75
2022/11/16 08:37:04;;;;;;;0.10;0.10;;;;;;;;;;5016475;28;20646;-74
2022/11/16 08:39:40;;;;;;;0.00;0.00;;;;;;;;;;5022121;28;20626;-75
2022/11/16 08:42:09;;;;;;;0.10;0.10;;;;;;;;;;5022014;28;20737;-74
2022/11/16 08:44:38;;;;;;;0.10;0.10;;;;;;;;;;5021644;28;20618;-74
2022/11/16 08:47:09;;;;;;;0.10;0.10;;;;;;;;;;5022449;28;20705;-75
2022/11/16 08:49:42;;;;;;;0.10;0.10;;;;;;;;;;5021387;28;20744;-75
2022/11/16 08:52:10;;;;;;;0.10;0.10;;;;;;;;;;5029159;28;20755;-75
2022/11/16 08:54:40;;;;;;;0.10;0.10;;;;;;;;;;5022242;28;20662;-75
2022/11/16 08:57:09;;;;;;;0.10;0.10;;;;;;;;;;5027755;28;20618;-74
2022/11/16 08:59:38;;;;;;;0.10;0.10;;;;;;;;;;5022625;28;20625;-75
2022/11/16 09:02:10;;;;;;;0.10;0.10;;;;;;;;;;5033080;28;20684;-75
2022/11/16 09:04:37;;;;;;;0.10;0.10;;;;;;;;;;5022540;28;20630;-74
2022/11/16 09:07:05;;;;;;;0.10;0.10;;;;;;;;;;5021288;28;20631;-74
2022/11/16 09:09:32;;;;;;;0.10;0.10;;;;;;;;;;5023008;28;20614;-75
2022/11/16 09:11:59;;;;;;;0.10;0.10;;;;;;;;;;5020600;28;20638;-75
2022/11/16 09:14:29;;;;;;;0.10;0.10;;;;;;;;;;5024182;28;20650;-74
2022/11/16 09:16:57;;;;;;;0.10;0.10;;;;;;;;;;5022175;28;20699;-74
2022/11/16 09:19:24;;;;;;;0.00;0.00;;;;;;;;;;5030691;28;20684;-74
2022/11/16 09:21:51;;;;;;;0.10;0.10;;;;;;;;;;5029265;28;20615;-75
2022/11/16 09:24:19;;;;;;;0.00;0.00;;;;;;;;;;5023432;28;20602;-74
2022/11/16 09:26:47;;;;;;;0.00;0.00;;;;;;;;;;5021438;28;20619;-74
2022/11/16 09:29:15;;;;;;;0.00;0.00;;;;;;;;;;5023214;28;20606;-74
2022/11/16 09:31:45;;;;;;;0.10;0.10;;;;;;;;;;5015704;28;20641;-75
2022/11/16 09:34:12;;;;;;;0.10;0.10;;;;;;;;;;5019773;28;20695;-75
2022/11/16 09:36:39;;;;;;;0.10;0.10;;;;;;;;;;5017243;28;20630;-75
2022/11/16 09:39:07;;;;;;;0.10;0.10;;;;;;;;;;5018753;28;20635;-75
2022/11/16 09:41:42;;;;;;;0.10;0.10;;;;;;;;;;5021039;28;20705;-75
2022/11/16 09:44:13;;;;;;;0.10;0.10;;;;;;;;;;5010731;28;20678;-74
2022/11/16 09:46:42;;;;;;;0.10;0.10;;;;;;;;;;5026464;28;21194;-75
2022/11/16 09:49:13;;;;;;;0.00;0.00;;;;;;;;;;5019226;28;20619;-75
2022/11/16 09:51:42;;;;;;;0.00;0.00;;;;;;;;;;5018088;28;20636;-75
2022/11/16 09:54:14;;;;;;;0.00;0.00;;;;;;;;;;5014450;28;20667;-75
2022/11/16 09:56:42;;;;;;;0.00;0.00;;;;;;;;;;5017940;28;20622;-75
2022/11/16 09:59:12;;;;;;;0.10;0.10;;;;;;;;;;5012861;28;20623;-75
2022/11/16 10:01:42;;;;;;;0.10;0.10;;;;;;;;;;5019789;28;20713;-74
2022/11/16 10:04:14;;;;;;;0.00;0.00;;;;;;;;;;5018382;28;20673;-74
2022/11/16 10:06:47;;;;;;;0.10;0.10;;;;;;;;;;5020522;28;20614;-75
2022/11/16 10:09:14;;;;;;;0.00;0.00;;;;;;;;;;5010832;28;20634;-75
2022/11/16 10:11:49;;;;;;;0.07;0.07;;;;;;;;;;5008558;28;20630;-75
2022/11/16 10:14:22;;;;;;;0.10;0.10;;;;;;;;;;5018300;28;20610;-75
2022/11/16 10:16:52;;;;;;;0.10;0.10;;;;;;;;;;5017106;28;20631;-75
2022/11/16 10:19:25;;;;;;;0.10;0.10;;;;;;;;;;5018129;28;20677;-75
2022/11/16 10:21:55;;;;;;;0.00;0.00;;;;;;;;;;5010254;28;20618;-75
2022/11/16 10:24:32;;;;;;;0.10;0.10;;;;;;;;;;5010492;28;20629;-75
2022/11/16 10:27:09;;;;;;;0.10;0.10;;;;;;;;;;5017957;28;20673;-72
2022/11/16 10:29:45;;;;;;;0.00;0.00;;;;;;;;;;5007333;28;20646;-73
2022/11/16 10:32:18;;;;;;;0.10;0.10;;;;;;;;;;5017829;28;20661;-73
2022/11/16 10:34:50;;;;;;;0.10;0.10;;;;;;;;;;5011120;28;20651;-73
2022/11/16 10:37:18;;;;;;;0.00;0.00;;;;;;;;;;5009989;28;20645;-73
2022/11/16 10:39:48;;;;;;;0.10;0.10;;;;;;;;;;5018136;28;20709;-73
2022/11/16 10:42:18;;;;;;;0.10;0.10;;;;;;;;;;5017975;28;20754;-73
2022/11/16 10:44:47;;;;;;;0.10;0.10;;;;;;;;;;5005743;28;20629;-73
2022/11/16 10:47:17;;;;;;;0.10;0.10;;;;;;;;;;5012187;28;20646;-73
2022/11/16 10:49:50;;;;;;;0.10;0.10;;;;;;;;;;5015982;28;20615;-74
2022/11/16 10:52:18;;;;;;;0.00;0.00;;;;;;;;;;5017343;28;20749;-74
2022/11/16 10:54:46;;;;;;;0.10;0.10;;;;;;;;;;5016945;28;20789;-74
2022/11/16 10:57:13;;;;;;;0.10;0.10;;;;;;;;;;5027962;28;20631;-73
2022/11/16 10:59:42;;;;;;;0.00;0.00;;;;;;;;;;5016664;28;20623;-73
2022/11/16 11:02:26;;;;;;;0.10;0.10;;;;;;;;;;5007447;28;20663;-73
2022/11/16 11:05:03;;;;;;;0.00;0.00;;;;;;;;;;5025107;28;20638;-73
2022/11/16 11:07:31;;;;;;;0.10;0.10;;;;;;;;;;5026460;28;20630;-74
2022/11/16 11:09:59;;;;;;;0.00;0.00;;;;;;;;;;5016667;28;20623;-73
2022/11/16 11:12:39;;;;;;;0.00;0.00;;;;;;;;;;5015198;28;20658;-73
2022/11/16 11:15:20;;;;;;;0.10;0.10;;;;;;;;;;5025406;28;20701;-73
2022/11/16 11:17:48;;;;;;;0.00;0.00;;;;;;;;;;5009255;28;20620;-74
2022/11/16 11:20:22;;;;;;;0.00;0.00;;;;;;;;;;5015878;28;20718;-73
2022/11/16 11:22:53;;;;;;;0.10;0.10;;;;;;;;;;5007307;28;20662;-74
2022/11/16 11:25:22;;;;;;;0.00;0.00;;;;;;;;;;5016977;28;20745;-73
2022/11/16 11:27:50;;;;;;;0.10;0.10;;;;;;;;;;5015850;28;20603;-73
2022/11/16 11:30:20;;;;;;;0.10;0.10;;;;;;;;;;5018003;28;20702;-73
2022/11/16 11:32:48;;;;;;;0.10;0.10;;;;;;;;;;5017085;28;20655;-73
2022/11/16 11:35:24;;;;;;;0.00;0.00;;;;;;;;;;5014930;28;20662;-73
2022/11/16 11:37:53;;;;;;;0.00;0.00;;;;;;;;;;5007417;28;20622;-73
2022/11/16 11:40:22;;;;;;;0.00;0.00;;;;;;;;;;5018579;28;20611;-73
2022/11/16 11:43:00;;;;;;;0.10;0.10;;;;;;;;;;5014202;28;20647;-73
2022/11/16 11:45:36;;;;;;;0.10;0.10;;;;;;;;;;5010128;28;20717;-74
2022/11/16 11:48:07;;;;;;;0.00;0.00;;;;;;;;;;5015795;28;20606;-73
2022/11/16 11:50:43;;;;;;;0.00;0.00;;;;;;;;;;5008097;28;21207;-73
2022/11/16 11:53:15;;;;;;;0.10;0.10;;;;;;;;;;5024287;28;20649;-74
2022/11/16 11:55:43;;;;;;;0.10;0.10;;;;;;;;;;5016134;28;20654;-74
2022/11/16 11:58:13;;;;;;;0.10;0.10;;;;;;;;;;5017062;28;20658;-73
2022/11/16 12:00:44;;;;;;;0.10;0.10;;;;;;;;;;5016879;28;20634;-73
2022/11/16 12:03:23;;;;;;;0.10;0.10;;;;;;;;;;5023560;28;20663;-73
2022/11/16 12:05:58;;;;;;;0.00;0.00;;;;;;;;;;5006043;28;21254;-73
2022/11/16 12:08:35;;;;;;;0.10;0.10;;;;;;;;;;5017031;28;20721;-73
2022/11/16 12:11:07;;;;;;;0.00;0.00;;;;;;;;;;5009291;28;20670;-73
2022/11/16 12:13:47;;;;;;;0.00;0.00;;;;;;;;;;5015556;28;20749;-76
2022/11/16 12:16:19;;;;;;;0.10;0.10;;;;;;;;;;5022710;28;20662;-72
2022/11/16 12:18:53;;;;;;;0.10;0.10;;;;;;;;;;5014447;28;20630;-70
2022/11/16 12:21:26;;;;;;;0.10;0.10;;;;;;;;;;5015861;28;20633;-69
2022/11/16 12:23:59;;;;;;;0.00;0.00;;;;;;;;;;5023486;28;20671;-70
2022/11/16 12:26:32;;;;;;;0.10;0.10;;;;;;;;;;5016209;28;20623;-69
2022/11/16 12:29:07;;;;;;;0.10;0.10;;;;;;;;;;5022998;28;20639;-70
2022/11/16 12:31:44;;;;;;;0.10;0.10;;;;;;;;;;5008929;28;20642;-71
2022/11/16 12:34:16;;;;;;;0.00;0.00;;;;;;;;;;5010443;28;21307;-72
2022/11/16 12:36:51;;;;;;;0.00;0.00;;;;;;;;;;5007938;28;20695;-73
2022/11/16 12:39:23;;;;;;;0.10;0.10;;;;;;;;;;5015973;28;20602;-74
2022/11/16 12:41:58;;;;;;;0.03;0.03;;;;;;;;;;5014388;28;20778;-75
2022/11/16 12:44:30;;;;;;;0.00;0.00;;;;;;;;;;5006368;28;20624;-75
2022/11/16 12:47:03;;;;;;;0.10;0.10;;;;;;;;;;5023446;28;20643;-74
2022/11/16 12:49:49;;;;;;;0.00;0.00;;;;;;;;;;5024510;28;21116;-75
2022/11/16 12:52:25;;;;;;;0.00;0.00;;;;;;;;;;5007484;28;20701;-75
2022/11/16 12:55:10;;;;;;;0.10;0.10;;;;;;;;;;5017224;28;20642;-76
2022/11/16 12:57:41;;;;;;;0.10;0.10;;;;;;;;;;5008867;28;20731;-76
2022/11/16 13:00:10;;;;;;;0.10;0.10;;;;;;;;;;5017183;28;20700;-76
2022/11/16 13:02:45;;;;;;;0.10;0.10;;;;;;;;;;5022384;28;20654;-77
2022/11/16 13:05:15;;;;;;;0.10;0.10;;;;;;;;;;5023818;28;20696;-77
2022/11/16 13:07:45;;;;;;;0.10;0.10;;;;;;;;;;5010073;28;20665;-77
2022/11/16 13:10:16;;;;;;;0.10;0.10;;;;;;;;;;5022737;28;20692;-77
2022/11/16 13:12:46;;;;;;;0.10;0.10;;;;;;;;;;5012839;28;20666;-77
2022/11/16 13:15:18;;;;;;;0.10;0.10;;;;;;;;;;5021527;28;20684;-77
2022/11/16 13:17:50;;;;;;;0.10;0.10;;;;;;;;;;5010880;28;20610;-77
2022/11/16 13:20:23;;;;;;;0.10;0.10;;;;;;;;;;5015605;28;20650;-77
2022/11/16 13:22:55;;;;;;;0.07;0.07;;;;;;;;;;5011939;28;20670;-77
2022/11/16 13:25:25;;;;;;;0.00;0.00;;;;;;;;;;5013167;28;20749;-78
2022/11/16 13:27:55;;;;;;;0.10;0.10;;;;;;;;;;5034727;28;20657;-78
2022/11/16 13:30:24;;;;;;;0.00;0.00;;;;;;;;;;5027991;28;21275;-77
2022/11/16 13:32:58;;;;;;;0.10;0.10;;;;;;;;;;5022976;28;20682;-79
2022/11/16 13:35:25;;;;;;;0.10;0.10;;;;;;;;;;5015848;28;20630;-80
2022/11/16 13:37:54;;;;;;;0.10;0.10;;;;;;;;;;5024359;28;20621;-81
2022/11/16 13:40:26;;;;;;;0.10;0.10;;;;;;;;;;5023298;28;20712;-80
2022/11/16 13:43:13;;;;;;;0.10;0.10;;;;;;;;;;5034966;28;20654;-81
2022/11/16 13:45:42;;;;;;;0.10;0.10;;;;;;;;;;5024634;28;20610;-80
2022/11/16 13:48:17;;;;;;;0.10;0.10;;;;;;;;;;5021550;28;20615;-81
2022/11/16 13:50:48;;;;;;;0.10;0.10;;;;;;;;;;5022820;28;20653;-81
2022/11/16 13:53:22;;;;;;;0.10;0.10;;;;;;;;;;5021774;28;20708;-81
2022/11/16 13:55:55;;;;;;;0.00;0.00;;;;;;;;;;5017263;28;20709;-80
2022/11/16 13:58:23;;;;;;;0.00;0.00;;;;;;;;;;5030134;28;20727;-80
2022/11/16 14:00:55;;;;;;;0.10;0.10;;;;;;;;;;5020914;28;20619;-81
2022/11/16 14:03:29;;;;;;;0.00;0.00;;;;;;;;;;5033874;28;20751;-80
2022/11/16 14:05:57;;;;;;;0.00;0.00;;;;;;;;;;5028817;28;20654;-79
2022/11/16 14:08:43;;;;;;;0.03;0.03;;;;;;;;;;5028183;28;20689;-78
2022/11/16 14:11:26;;;;;;;0.03;0.03;;;;;;;;;;5028590;28;20610;-79
2022/11/16 14:13:55;;;;;;;0.00;0.00;;;;;;;;;;5035243;28;20771;-78
2022/11/16 14:16:45;;;;;;;0.00;0.00;;;;;;;;;;5028411;28;20731;-79
2022/11/16 14:19:31;;;;;;;0.10;0.10;;;;;;;;;;5027117;28;20618;-79
2022/11/16 14:22:02;;;;;;;0.10;0.10;;;;;;;;;;5028231;28;20641;-79
2022/11/16 14:24:34;;;;;;;0.10;0.10;;;;;;;;;;5036924;28;20618;-79
2022/11/16 14:27:07;;;;;;;0.10;0.10;;;;;;;;;;5028092;28;20623;-80
2022/11/16 14:29:48;;;;;;;0.10;0.10;;;;;;;;;;5018327;28;20630;-79
2022/11/16 14:32:21;;;;;;;0.10;0.10;;;;;;;;;;5018747;28;20676;-79
2022/11/16 14:34:49;;;;;;;0.00;0.00;;;;;;;;;;5020981;28;20615;-79
2022/11/16 14:37:29;;;;;;;0.10;0.10;;;;;;;;;;5014930;28;20673;-79
2022/11/16 14:40:01;;;;;;;0.10;0.10;;;;;;;;;;5018845;28;20665;-80
2022/11/16 14:42:30;;;;;;;0.10;0.10;;;;;;;;;;5025790;28;20733;-80
2022/11/16 14:45:01;;;;;;;0.10;0.10;;;;;;;;;;5021789;28;20631;-79
2022/11/16 14:47:29;;;;;;;0.10;0.10;;;;;;;;;;5030165;28;20619;-78
2022/11/16 14:49:57;;;;;;;0.10;0.10;;;;;;;;;;5020717;28;20649;-80
2022/11/16 14:52:28;;;;;;;0.10;0.10;;;;;;;;;;5030085;28;20662;-80
2022/11/16 14:54:59;;;;;;;0.00;0.00;;;;;;;;;;5020327;28;20633;-81
2022/11/16 14:57:27;;;;;;;0.10;0.10;;;;;;;;;;5032319;28;20654;-81
2022/11/16 15:00:09;;;;;;;0.10;0.10;;;;;;;;;;5024342;28;20630;-81
2022/11/16 15:02:37;;;;;;;0.10;0.10;;;;;;;;;;5018972;28;20653;-80
2022/11/16 15:05:04;;;;;;;0.10;0.10;;;;;;;;;;5018757;28;20626;-79
2022/11/16 15:07:32;;;;;;;0.00;0.00;;;;;;;;;;5025203;28;20673;-78
2022/11/16 15:10:00;;;;;;;0.10;0.10;;;;;;;;;;5026726;28;20635;-78
2022/11/16 15:12:43;;;;;;;0.10;0.10;;;;;;;;;;5033571;28;20721;-78
2022/11/16 15:15:16;;;;;;;0.00;0.00;;;;;;;;;;5019496;28;20757;-77
2022/11/16 15:17:45;;;;;;;0.10;0.10;;;;;;;;;;5010247;28;20654;-77
2022/11/16 15:20:18;;;;;;;0.10;0.10;;;;;;;;;;5017149;28;20688;-77
2022/11/16 15:22:47;;;;;;;0.10;0.10;;;;;;;;;;5006985;28;20719;-78
2022/11/16 15:25:24;;;;;;;0.10;0.10;;;;;;;;;;5017795;28;20638;-77
2022/11/16 15:27:52;;;;;;;0.10;0.10;;;;;;;;;;5019067;28;20616;-78
2022/11/16 15:30:22;;;;;;;0.10;0.10;;;;;;;;;;5018282;28;20607;-77
2022/11/16 15:32:49;;;;;;;0.00;0.00;;;;;;;;;;5003155;28;21329;-76
2022/11/16 15:35:19;;;;;;;0.10;0.10;;;;;;;;;;5013989;28;20622;-76
2022/11/16 15:37:46;;;;;;;0.10;0.10;;;;;;;;;;5013565;28;20690;-76